sensor_id;sensor_type;location;lat;lon;timestamp;temperature;humidity
65046;DHT22;54657;52.022;5.534;2023-11-18T00:00:00;8.40;96.70
65046;DHT22;54657;52.022;5.534;2023-11-18T00:02:25;8.40;96.80
65046;DHT22;54657;52.022;5.534;2023-11-18T00:04:51;8.40;96.80
65046;DHT22;54657;52.022;5.534;2023-11-18T00:07:17;8.40;96.80
65046;DHT22;54657;52.022;5.534;2023-11-18T00:09:42;8.40;96.80
65046;DHT22;54657;52.022;5.534;2023-11-18T00:12:11;8.50;96.70
65046;DHT22;54657;52.022;5.534;2023-11-18T00:14:37;8.50;96.70
65046;DHT22;54657;52.022;5.534;2023-11-18T00:17:03;8.40;96.70
65046;DHT22;54657;52.022;5.534;2023-11-18T00:19:29;8.40;96.80
65046;DHT22;54657;52.022;5.534;2023-11-18T00:21:55;8.50;96.80
65046;DHT22;54657;52.022;5.534;2023-11-18T00:24:20;8.50;96.80
65046;DHT22;54657;52.022;5.534;2023-11-18T00:26:46;8.50;96.80
65046;DHT22;54657;52.022;5.534;2023-11-18T00:29:12;8.50;96.80
65046;DHT22;54657;52.022;5.534;2023-11-18T00:31:37;8.50;96.80
65046;DHT22;54657;52.022;5.534;2023-11-18T00:34:03;8.50;96.70
65046;DHT22;54657;52.022;5.534;2023-11-18T00:36:29;8.50;96.70
65046;DHT22;54657;52.022;5.534;2023-11-18T00:38:54;8.50;96.70
65046;DHT22;54657;52.022;5.534;2023-11-18T00:41:20;8.50;96.70
65046;DHT22;54657;52.022;5.534;2023-11-18T00:43:47;8.50;96.80
65046;DHT22;54657;52.022;5.534;2023-11-18T00:46:12;8.50;96.80
65046;DHT22;54657;52.022;5.534;2023-11-18T00:48:38;8.40;96.80
65046;DHT22;54657;52.022;5.534;2023-11-18T00:51:05;8.40;96.80
65046;DHT22;54657;52.022;5.534;2023-11-18T00:53:31;8.40;96.80
65046;DHT22;54657;52.022;5.534;2023-11-18T00:55:56;8.40;96.80
65046;DHT22;54657;52.022;5.534;2023-11-18T00:58:22;8.40;96.80
65046;DHT22;54657;52.022;5.534;2023-11-18T01:00:48;8.40;96.90
65046;DHT22;54657;52.022;5.534;2023-11-18T01:03:13;8.30;96.90
65046;DHT22;54657;52.022;5.534;2023-11-18T01:05:39;8.30;96.90
65046;DHT22;54657;52.022;5.534;2023-11-18T01:08:04;8.30;96.90
65046;DHT22;54657;52.022;5.534;2023-11-18T01:10:30;8.30;96.80
65046;DHT22;54657;52.022;5.534;2023-11-18T01:12:56;8.30;96.90
65046;DHT22;54657;52.022;5.534;2023-11-18T01:15:23;8.30;96.80
65046;DHT22;54657;52.022;5.534;2023-11-18T01:17:49;8.30;96.80
65046;DHT22;54657;52.022;5.534;2023-11-18T01:20:14;8.20;96.70
65046;DHT22;54657;52.022;5.534;2023-11-18T01:22:46;8.20;96.80
65046;DHT22;54657;52.022;5.534;2023-11-18T01:25:12;8.20;96.80
65046;DHT22;54657;52.022;5.534;2023-11-18T01:27:38;8.10;96.80
65046;DHT22;54657;52.022;5.534;2023-11-18T01:30:05;8.10;96.80
65046;DHT22;54657;52.022;5.534;2023-11-18T01:32:31;8.10;96.90
65046;DHT22;54657;52.022;5.534;2023-11-18T01:34:57;8.00;97.00
65046;DHT22;54657;52.022;5.534;2023-11-18T01:37:22;8.00;97.00
65046;DHT22;54657;52.022;5.534;2023-11-18T01:39:49;8.10;97.00
65046;DHT22;54657;52.022;5.534;2023-11-18T01:42:14;8.10;97.00
65046;DHT22;54657;52.022;5.534;2023-11-18T01:44:40;8.10;97.00
65046;DHT22;54657;52.022;5.534;2023-11-18T01:47:07;8.10;97.00
65046;DHT22;54657;52.022;5.534;2023-11-18T01:49:37;8.00;97.10
65046;DHT22;54657;52.022;5.534;2023-11-18T01:52:06;8.00;97.20
65046;DHT22;54657;52.022;5.534;2023-11-18T01:54:34;8.00;97.20
65046;DHT22;54657;52.022;5.534;2023-11-18T01:56:59;8.00;97.20
65046;DHT22;54657;52.022;5.534;2023-11-18T01:59:28;8.10;97.10
65046;DHT22;54657;52.022;5.534;2023-11-18T02:01:55;8.10;97.10
65046;DHT22;54657;52.022;5.534;2023-11-18T02:04:25;8.10;97.00
65046;DHT22;54657;52.022;5.534;2023-11-18T02:06:51;8.00;97.00
65046;DHT22;54657;52.022;5.534;2023-11-18T02:09:18;8.00;97.10
65046;DHT22;54657;52.022;5.534;2023-11-18T02:14:31;8.00;97.20
65046;DHT22;54657;52.022;5.534;2023-11-18T02:16:59;8.10;97.10
65046;DHT22;54657;52.022;5.534;2023-11-18T02:19:28;8.10;97.00
65046;DHT22;54657;52.022;5.534;2023-11-18T02:21:55;8.10;97.00
65046;DHT22;54657;52.022;5.534;2023-11-18T02:24:29;8.10;97.00
65046;DHT22;54657;52.022;5.534;2023-11-18T02:27:00;8.10;97.00
65046;DHT22;54657;52.022;5.534;2023-11-18T02:29:29;8.10;96.90
65046;DHT22;54657;52.022;5.534;2023-11-18T02:32:01;8.10;96.90
65046;DHT22;54657;52.022;5.534;2023-11-18T02:34:30;8.10;96.90
65046;DHT22;54657;52.022;5.534;2023-11-18T02:36:58;8.10;96.90
65046;DHT22;54657;52.022;5.534;2023-11-18T02:39:39;8.10;96.90
65046;DHT22;54657;52.022;5.534;2023-11-18T02:42:08;8.20;96.90
65046;DHT22;54657;52.022;5.534;2023-11-18T02:44:35;8.10;96.90
65046;DHT22;54657;52.022;5.534;2023-11-18T02:47:03;8.10;96.90
65046;DHT22;54657;52.022;5.534;2023-11-18T02:49:30;8.10;97.00
65046;DHT22;54657;52.022;5.534;2023-11-18T02:51:56;8.10;97.00
65046;DHT22;54657;52.022;5.534;2023-11-18T02:54:22;8.10;97.00
65046;DHT22;54657;52.022;5.534;2023-11-18T02:56:48;8.10;97.00
65046;DHT22;54657;52.022;5.534;2023-11-18T02:59:15;8.10;97.00
65046;DHT22;54657;52.022;5.534;2023-11-18T03:01:40;8.10;97.00
65046;DHT22;54657;52.022;5.534;2023-11-18T03:04:06;8.10;97.00
65046;DHT22;54657;52.022;5.534;2023-11-18T03:06:32;8.10;97.00
65046;DHT22;54657;52.022;5.534;2023-11-18T03:08:58;8.10;97.00
65046;DHT22;54657;52.022;5.534;2023-11-18T03:11:24;8.10;97.00
65046;DHT22;54657;52.022;5.534;2023-11-18T03:13:49;8.10;97.00
65046;DHT22;54657;52.022;5.534;2023-11-18T03:16:15;8.10;97.00
65046;DHT22;54657;52.022;5.534;2023-11-18T03:18:42;8.10;97.20
65046;DHT22;54657;52.022;5.534;2023-11-18T03:21:14;8.10;97.00
65046;DHT22;54657;52.022;5.534;2023-11-18T03:23:41;8.00;97.00
65046;DHT22;54657;52.022;5.534;2023-11-18T03:26:07;8.00;97.00
65046;DHT22;54657;52.022;5.534;2023-11-18T03:28:33;8.00;97.10
65046;DHT22;54657;52.022;5.534;2023-11-18T03:30:59;8.00;97.10
65046;DHT22;54657;52.022;5.534;2023-11-18T03:33:24;8.00;97.10
65046;DHT22;54657;52.022;5.534;2023-11-18T03:35:50;8.00;97.10
65046;DHT22;54657;52.022;5.534;2023-11-18T03:38:15;8.00;97.20
65046;DHT22;54657;52.022;5.534;2023-11-18T03:40:44;8.00;97.10
65046;DHT22;54657;52.022;5.534;2023-11-18T03:43:11;8.00;97.20
65046;DHT22;54657;52.022;5.534;2023-11-18T03:45:40;8.00;97.10
65046;DHT22;54657;52.022;5.534;2023-11-18T03:48:06;8.00;97.20
65046;DHT22;54657;52.022;5.534;2023-11-18T03:50:32;8.00;97.20
65046;DHT22;54657;52.022;5.534;2023-11-18T03:52:58;7.90;97.20
65046;DHT22;54657;52.022;5.534;2023-11-18T03:55:24;7.80;97.40
65046;DHT22;54657;52.022;5.534;2023-11-18T03:57:51;7.80;97.40
65046;DHT22;54657;52.022;5.534;2023-11-18T04:00:17;7.80;97.40
65046;DHT22;54657;52.022;5.534;2023-11-18T04:02:43;7.80;97.40
65046;DHT22;54657;52.022;5.534;2023-11-18T04:05:12;7.70;97.50
65046;DHT22;54657;52.022;5.534;2023-11-18T04:07:38;7.60;97.50
65046;DHT22;54657;52.022;5.534;2023-11-18T04:10:04;7.60;97.60
65046;DHT22;54657;52.022;5.534;2023-11-18T04:12:34;7.60;97.60
65046;DHT22;54657;52.022;5.534;2023-11-18T04:15:00;7.60;97.60
65046;DHT22;54657;52.022;5.534;2023-11-18T04:17:25;7.60;97.70
65046;DHT22;54657;52.022;5.534;2023-11-18T04:19:53;7.50;97.60
65046;DHT22;54657;52.022;5.534;2023-11-18T04:22:21;7.50;97.70
65046;DHT22;54657;52.022;5.534;2023-11-18T04:24:47;7.50;97.70
65046;DHT22;54657;52.022;5.534;2023-11-18T04:27:12;7.50;97.70
65046;DHT22;54657;52.022;5.534;2023-11-18T04:29:38;7.50;97.80
65046;DHT22;54657;52.022;5.534;2023-11-18T04:32:06;7.50;97.70
65046;DHT22;54657;52.022;5.534;2023-11-18T04:34:35;7.50;97.60
65046;DHT22;54657;52.022;5.534;2023-11-18T04:37:02;7.50;97.70
65046;DHT22;54657;52.022;5.534;2023-11-18T04:39:28;7.50;97.70
65046;DHT22;54657;52.022;5.534;2023-11-18T04:41:55;7.50;97.80
65046;DHT22;54657;52.022;5.534;2023-11-18T04:44:22;7.50;97.80
65046;DHT22;54657;52.022;5.534;2023-11-18T04:46:47;7.50;97.60
65046;DHT22;54657;52.022;5.534;2023-11-18T04:49:13;7.50;97.70
65046;DHT22;54657;52.022;5.534;2023-11-18T04:51:39;7.50;97.80
65046;DHT22;54657;52.022;5.534;2023-11-18T04:54:04;7.60;97.80
65046;DHT22;54657;52.022;5.534;2023-11-18T04:56:33;7.60;97.70
65046;DHT22;54657;52.022;5.534;2023-11-18T04:59:00;7.50;97.70
65046;DHT22;54657;52.022;5.534;2023-11-18T05:01:26;7.60;97.70
65046;DHT22;54657;52.022;5.534;2023-11-18T05:03:51;7.60;97.80
65046;DHT22;54657;52.022;5.534;2023-11-18T05:06:17;7.60;97.80
65046;DHT22;54657;52.022;5.534;2023-11-18T05:08:45;7.60;97.80
65046;DHT22;54657;52.022;5.534;2023-11-18T05:11:11;7.60;97.80
65046;DHT22;54657;52.022;5.534;2023-11-18T05:13:38;7.60;97.80
65046;DHT22;54657;52.022;5.534;2023-11-18T05:16:06;7.60;97.80
65046;DHT22;54657;52.022;5.534;2023-11-18T05:18:32;7.60;97.90
65046;DHT22;54657;52.022;5.534;2023-11-18T05:21:02;7.70;97.80
65046;DHT22;54657;52.022;5.534;2023-11-18T05:23:28;7.70;97.80
65046;DHT22;54657;52.022;5.534;2023-11-18T05:25:55;7.70;97.80
65046;DHT22;54657;52.022;5.534;2023-11-18T05:28:21;7.80;97.80
65046;DHT22;54657;52.022;5.534;2023-11-18T05:30:47;7.80;97.70
65046;DHT22;54657;52.022;5.534;2023-11-18T05:33:13;7.70;97.70
65046;DHT22;54657;52.022;5.534;2023-11-18T05:35:44;7.70;97.80
65046;DHT22;54657;52.022;5.534;2023-11-18T05:38:16;7.70;97.80
65046;DHT22;54657;52.022;5.534;2023-11-18T05:40:45;7.80;97.80
65046;DHT22;54657;52.022;5.534;2023-11-18T05:43:25;7.80;97.80
65046;DHT22;54657;52.022;5.534;2023-11-18T05:45:53;7.90;97.80
65046;DHT22;54657;52.022;5.534;2023-11-18T05:48:37;7.90;98.30
65046;DHT22;54657;52.022;5.534;2023-11-18T05:51:03;7.90;97.70
65046;DHT22;54657;52.022;5.534;2023-11-18T05:53:29;7.90;97.70
65046;DHT22;54657;52.022;5.534;2023-11-18T05:55:55;7.90;97.70
65046;DHT22;54657;52.022;5.534;2023-11-18T05:58:21;7.90;97.60
65046;DHT22;54657;52.022;5.534;2023-11-18T06:00:47;7.90;97.70
65046;DHT22;54657;52.022;5.534;2023-11-18T06:03:13;7.90;97.60
65046;DHT22;54657;52.022;5.534;2023-11-18T06:05:39;8.00;97.70
65046;DHT22;54657;52.022;5.534;2023-11-18T06:08:05;8.00;97.60
65046;DHT22;54657;52.022;5.534;2023-11-18T06:10:30;8.00;97.60
65046;DHT22;54657;52.022;5.534;2023-11-18T06:12:59;8.00;97.60
65046;DHT22;54657;52.022;5.534;2023-11-18T06:15:25;8.00;97.60
65046;DHT22;54657;52.022;5.534;2023-11-18T06:17:51;8.00;97.50
65046;DHT22;54657;52.022;5.534;2023-11-18T06:20:16;8.00;97.60
65046;DHT22;54657;52.022;5.534;2023-11-18T06:22:42;7.90;97.70
65046;DHT22;54657;52.022;5.534;2023-11-18T06:25:08;7.90;97.70
65046;DHT22;54657;52.022;5.534;2023-11-18T06:27:34;7.90;97.70
65046;DHT22;54657;52.022;5.534;2023-11-18T06:29:59;7.90;97.70
65046;DHT22;54657;52.022;5.534;2023-11-18T06:32:25;7.90;97.80
65046;DHT22;54657;52.022;5.534;2023-11-18T06:34:51;7.90;97.80
65046;DHT22;54657;52.022;5.534;2023-11-18T06:37:19;7.90;97.90
65046;DHT22;54657;52.022;5.534;2023-11-18T06:39:44;7.90;97.90
65046;DHT22;54657;52.022;5.534;2023-11-18T06:42:13;7.80;97.90
65046;DHT22;54657;52.022;5.534;2023-11-18T06:44:39;7.90;97.90
65046;DHT22;54657;52.022;5.534;2023-11-18T06:47:05;7.90;97.80
65046;DHT22;54657;52.022;5.534;2023-11-18T06:49:32;7.90;97.80
65046;DHT22;54657;52.022;5.534;2023-11-18T06:52:00;7.80;97.90
65046;DHT22;54657;52.022;5.534;2023-11-18T06:54:29;7.80;97.90
65046;DHT22;54657;52.022;5.534;2023-11-18T06:56:55;7.90;97.90
65046;DHT22;54657;52.022;5.534;2023-11-18T06:59:21;7.90;97.90
65046;DHT22;54657;52.022;5.534;2023-11-18T07:01:47;7.90;97.90
65046;DHT22;54657;52.022;5.534;2023-11-18T07:04:13;7.90;97.90
65046;DHT22;54657;52.022;5.534;2023-11-18T07:06:39;7.90;97.80
65046;DHT22;54657;52.022;5.534;2023-11-18T07:09:06;7.90;97.80
65046;DHT22;54657;52.022;5.534;2023-11-18T07:11:47;8.00;97.90
65046;DHT22;54657;52.022;5.534;2023-11-18T07:14:13;8.00;97.90
65046;DHT22;54657;52.022;5.534;2023-11-18T07:16:40;7.90;98.10
65046;DHT22;54657;52.022;5.534;2023-11-18T07:19:06;7.90;97.90
65046;DHT22;54657;52.022;5.534;2023-11-18T07:21:32;7.90;97.90
65046;DHT22;54657;52.022;5.534;2023-11-18T07:23:59;7.90;97.80
65046;DHT22;54657;52.022;5.534;2023-11-18T07:26:24;7.90;97.90
65046;DHT22;54657;52.022;5.534;2023-11-18T07:28:50;7.90;97.90
65046;DHT22;54657;52.022;5.534;2023-11-18T07:31:17;7.90;97.90
65046;DHT22;54657;52.022;5.534;2023-11-18T07:33:44;7.90;98.00
65046;DHT22;54657;52.022;5.534;2023-11-18T07:36:17;7.90;98.00
65046;DHT22;54657;52.022;5.534;2023-11-18T07:38:48;7.90;97.90
65046;DHT22;54657;52.022;5.534;2023-11-18T07:41:15;8.00;98.00
65046;DHT22;54657;52.022;5.534;2023-11-18T07:43:52;8.00;98.00
65046;DHT22;54657;52.022;5.534;2023-11-18T07:46:20;8.00;98.00
65046;DHT22;54657;52.022;5.534;2023-11-18T07:48:51;8.00;98.00
65046;DHT22;54657;52.022;5.534;2023-11-18T07:51:21;8.10;97.90
65046;DHT22;54657;52.022;5.534;2023-11-18T07:53:48;8.10;98.00
65046;DHT22;54657;52.022;5.534;2023-11-18T07:56:14;8.10;97.90
65046;DHT22;54657;52.022;5.534;2023-11-18T07:58:44;8.10;97.90
65046;DHT22;54657;52.022;5.534;2023-11-18T08:01:13;8.00;97.90
65046;DHT22;54657;52.022;5.534;2023-11-18T08:03:41;8.00;98.00
65046;DHT22;54657;52.022;5.534;2023-11-18T08:06:07;8.10;98.00
65046;DHT22;54657;52.022;5.534;2023-11-18T08:08:34;8.10;98.00
65046;DHT22;54657;52.022;5.534;2023-11-18T08:11:00;8.00;98.00
65046;DHT22;54657;52.022;5.534;2023-11-18T08:13:26;8.10;98.00
65046;DHT22;54657;52.022;5.534;2023-11-18T08:15:51;8.00;98.10
65046;DHT22;54657;52.022;5.534;2023-11-18T08:18:17;8.10;98.10
65046;DHT22;54657;52.022;5.534;2023-11-18T08:20:43;8.10;98.00
65046;DHT22;54657;52.022;5.534;2023-11-18T08:23:09;8.10;98.10
65046;DHT22;54657;52.022;5.534;2023-11-18T08:25:35;8.10;98.10
65046;DHT22;54657;52.022;5.534;2023-11-18T08:28:02;8.10;98.10
65046;DHT22;54657;52.022;5.534;2023-11-18T08:30:29;8.20;98.00
65046;DHT22;54657;52.022;5.534;2023-11-18T08:32:54;8.10;98.20
65046;DHT22;54657;52.022;5.534;2023-11-18T08:35:20;8.10;98.10
65046;DHT22;54657;52.022;5.534;2023-11-18T08:37:47;8.10;98.10
65046;DHT22;54657;52.022;5.534;2023-11-18T08:40:13;8.10;98.10
65046;DHT22;54657;52.022;5.534;2023-11-18T08:42:46;8.10;98.10
65046;DHT22;54657;52.022;5.534;2023-11-18T08:45:20;8.10;98.30
65046;DHT22;54657;52.022;5.534;2023-11-18T08:47:56;8.10;98.10
65046;DHT22;54657;52.022;5.534;2023-11-18T08:50:22;8.10;98.20
65046;DHT22;54657;52.022;5.534;2023-11-18T08:52:54;8.10;98.10
65046;DHT22;54657;52.022;5.534;2023-11-18T08:55:24;8.20;98.20
65046;DHT22;54657;52.022;5.534;2023-11-18T08:58:04;8.20;98.20
65046;DHT22;54657;52.022;5.534;2023-11-18T09:00:41;8.20;98.20
65046;DHT22;54657;52.022;5.534;2023-11-18T09:05:57;8.30;98.20
65046;DHT22;54657;52.022;5.534;2023-11-18T09:08:34;8.30;98.10
65046;DHT22;54657;52.022;5.534;2023-11-18T09:11:07;8.40;98.10
65046;DHT22;54657;52.022;5.534;2023-11-18T09:13:36;8.40;98.00
65046;DHT22;54657;52.022;5.534;2023-11-18T09:16:04;8.40;98.10
65046;DHT22;54657;52.022;5.534;2023-11-18T09:18:34;8.40;98.10
65046;DHT22;54657;52.022;5.534;2023-11-18T09:21:01;8.40;98.10
65046;DHT22;54657;52.022;5.534;2023-11-18T09:23:28;8.40;98.10
65046;DHT22;54657;52.022;5.534;2023-11-18T09:25:54;8.40;98.10
65046;DHT22;54657;52.022;5.534;2023-11-18T09:28:20;8.40;98.10
65046;DHT22;54657;52.022;5.534;2023-11-18T09:30:47;8.40;98.10
65046;DHT22;54657;52.022;5.534;2023-11-18T09:33:19;8.40;98.10
65046;DHT22;54657;52.022;5.534;2023-11-18T09:35:58;8.40;98.10
65046;DHT22;54657;52.022;5.534;2023-11-18T09:38:31;8.50;98.10
65046;DHT22;54657;52.022;5.534;2023-11-18T09:40:57;8.50;98.20
65046;DHT22;54657;52.022;5.534;2023-11-18T09:43:26;8.40;98.30
65046;DHT22;54657;52.022;5.534;2023-11-18T09:46:06;8.40;98.00
65046;DHT22;54657;52.022;5.534;2023-11-18T09:51:14;8.50;98.10
65046;DHT22;54657;52.022;5.534;2023-11-18T09:53:44;8.40;98.10
65046;DHT22;54657;52.022;5.534;2023-11-18T09:56:30;8.40;98.20
65046;DHT22;54657;52.022;5.534;2023-11-18T09:59:22;8.40;98.40
65046;DHT22;54657;52.022;5.534;2023-11-18T10:01:53;8.40;98.60
65046;DHT22;54657;52.022;5.534;2023-11-18T10:04:26;8.40;98.50
65046;DHT22;54657;52.022;5.534;2023-11-18T10:06:53;8.30;98.50
65046;DHT22;54657;52.022;5.534;2023-11-18T10:09:19;8.40;98.50
65046;DHT22;54657;52.022;5.534;2023-11-18T10:11:54;8.40;98.50
65046;DHT22;54657;52.022;5.534;2023-11-18T10:14:31;8.50;98.50
65046;DHT22;54657;52.022;5.534;2023-11-18T10:16:57;8.50;98.70
65046;DHT22;54657;52.022;5.534;2023-11-18T10:19:23;8.50;98.60
65046;DHT22;54657;52.022;5.534;2023-11-18T10:21:51;8.60;98.70
65046;DHT22;54657;52.022;5.534;2023-11-18T10:24:16;8.60;98.60
65046;DHT22;54657;52.022;5.534;2023-11-18T10:26:46;8.60;98.50
65046;DHT22;54657;52.022;5.534;2023-11-18T10:29:19;8.70;98.50
65046;DHT22;54657;52.022;5.534;2023-11-18T10:31:45;8.60;98.60
65046;DHT22;54657;52.022;5.534;2023-11-18T10:34:14;8.70;98.70
65046;DHT22;54657;52.022;5.534;2023-11-18T10:36:41;8.70;98.70
65046;DHT22;54657;52.022;5.534;2023-11-18T10:39:12;8.70;98.80
65046;DHT22;54657;52.022;5.534;2023-11-18T10:41:43;8.70;98.70
65046;DHT22;54657;52.022;5.534;2023-11-18T10:44:09;8.70;98.90
65046;DHT22;54657;52.022;5.534;2023-11-18T10:46:53;8.70;98.80
65046;DHT22;54657;52.022;5.534;2023-11-18T10:49:22;8.70;98.80
65046;DHT22;54657;52.022;5.534;2023-11-18T10:51:50;8.70;98.90
65046;DHT22;54657;52.022;5.534;2023-11-18T10:54:15;8.70;98.90
65046;DHT22;54657;52.022;5.534;2023-11-18T10:56:49;8.70;98.80
65046;DHT22;54657;52.022;5.534;2023-11-18T10:59:16;8.80;98.90
65046;DHT22;54657;52.022;5.534;2023-11-18T11:01:42;8.80;99.00
65046;DHT22;54657;52.022;5.534;2023-11-18T11:04:12;8.80;98.90
65046;DHT22;54657;52.022;5.534;2023-11-18T11:06:41;8.80;98.80
65046;DHT22;54657;52.022;5.534;2023-11-18T11:09:08;8.80;99.00
65046;DHT22;54657;52.022;5.534;2023-11-18T11:11:50;8.80;98.90
65046;DHT22;54657;52.022;5.534;2023-11-18T11:14:16;8.80;99.00
65046;DHT22;54657;52.022;5.534;2023-11-18T11:16:48;8.80;98.80
65046;DHT22;54657;52.022;5.534;2023-11-18T11:19:53;8.80;99.00
65046;DHT22;54657;52.022;5.534;2023-11-18T11:22:49;8.80;99.50
65046;DHT22;54657;52.022;5.534;2023-11-18T11:25:24;8.80;99.20
65046;DHT22;54657;52.022;5.534;2023-11-18T11:30:55;8.80;99.00
65046;DHT22;54657;52.022;5.534;2023-11-18T11:33:39;8.80;99.10
65046;DHT22;54657;52.022;5.534;2023-11-18T11:36:11;8.80;99.10
65046;DHT22;54657;52.022;5.534;2023-11-18T11:38:38;8.80;99.10
65046;DHT22;54657;52.022;5.534;2023-11-18T11:41:07;8.80;99.20
65046;DHT22;54657;52.022;5.534;2023-11-18T11:43:34;8.80;99.30
65046;DHT22;54657;52.022;5.534;2023-11-18T11:46:03;8.80;99.30
65046;DHT22;54657;52.022;5.534;2023-11-18T11:48:35;8.80;99.40
65046;DHT22;54657;52.022;5.534;2023-11-18T11:51:27;8.80;99.50
65046;DHT22;54657;52.022;5.534;2023-11-18T11:54:04;8.80;99.90
65046;DHT22;54657;52.022;5.534;2023-11-18T11:56:45;8.80;99.60
65046;DHT22;54657;52.022;5.534;2023-11-18T12:02:17;8.90;99.40
65046;DHT22;54657;52.022;5.534;2023-11-18T12:04:47;8.90;99.70
65046;DHT22;54657;52.022;5.534;2023-11-18T12:07:18;8.90;99.50
65046;DHT22;54657;52.022;5.534;2023-11-18T12:09:46;8.90;99.40
65046;DHT22;54657;52.022;5.534;2023-11-18T12:12:19;9.00;99.60
65046;DHT22;54657;52.022;5.534;2023-11-18T12:20:45;9.00;99.90
65046;DHT22;54657;52.022;5.534;2023-11-18T12:23:19;9.00;99.90
65046;DHT22;54657;52.022;5.534;2023-11-18T12:25:49;9.10;99.60
65046;DHT22;54657;52.022;5.534;2023-11-18T12:28:26;9.10;99.70
65046;DHT22;54657;52.022;5.534;2023-11-18T12:30:55;9.10;99.70
65046;DHT22;54657;52.022;5.534;2023-11-18T12:33:25;9.20;99.50
65046;DHT22;54657;52.022;5.534;2023-11-18T12:36:03;9.20;99.70
65046;DHT22;54657;52.022;5.534;2023-11-18T12:41:42;9.20;99.90
65046;DHT22;54657;52.022;5.534;2023-11-18T12:44:30;9.20;99.60
65046;DHT22;54657;52.022;5.534;2023-11-18T12:47:03;9.20;99.90
65046;DHT22;54657;52.022;5.534;2023-11-18T12:49:40;9.20;99.90
65046;DHT22;54657;52.022;5.534;2023-11-18T12:52:07;9.20;99.80
65046;DHT22;54657;52.022;5.534;2023-11-18T12:54:34;9.20;99.90
65046;DHT22;54657;52.022;5.534;2023-11-18T12:57:04;9.20;99.80
65046;DHT22;54657;52.022;5.534;2023-11-18T12:59:33;9.20;99.90
65046;DHT22;54657;52.022;5.534;2023-11-18T13:01:59;9.30;99.90
65046;DHT22;54657;52.022;5.534;2023-11-18T13:04:30;9.20;99.90
65046;DHT22;54657;52.022;5.534;2023-11-18T13:06:56;9.30;99.80
65046;DHT22;54657;52.022;5.534;2023-11-18T13:09:23;9.30;99.80
65046;DHT22;54657;52.022;5.534;2023-11-18T13:11:58;9.30;99.90
65046;DHT22;54657;52.022;5.534;2023-11-18T13:14:27;9.30;99.90
65046;DHT22;54657;52.022;5.534;2023-11-18T13:16:55;9.30;99.90
65046;DHT22;54657;52.022;5.534;2023-11-18T13:19:28;9.30;99.90
65046;DHT22;54657;52.022;5.534;2023-11-18T13:21:58;9.30;99.90
65046;DHT22;54657;52.022;5.534;2023-11-18T13:24:27;9.30;99.90
65046;DHT22;54657;52.022;5.534;2023-11-18T13:26:54;9.30;99.90
65046;DHT22;54657;52.022;5.534;2023-11-18T13:29:21;9.30;99.90
65046;DHT22;54657;52.022;5.534;2023-11-18T13:31:48;9.30;99.90
65046;DHT22;54657;52.022;5.534;2023-11-18T13:34:14;9.30;99.90
65046;DHT22;54657;52.022;5.534;2023-11-18T13:36:41;9.30;99.90
65046;DHT22;54657;52.022;5.534;2023-11-18T13:39:15;9.30;99.90
65046;DHT22;54657;52.022;5.534;2023-11-18T13:41:42;9.40;99.90
65046;DHT22;54657;52.022;5.534;2023-11-18T13:44:10;9.40;99.90
65046;DHT22;54657;52.022;5.534;2023-11-18T13:46:38;9.30;99.90
65046;DHT22;54657;52.022;5.534;2023-11-18T13:49:05;9.40;99.90
65046;DHT22;54657;52.022;5.534;2023-11-18T13:51:31;9.40;99.90
65046;DHT22;54657;52.022;5.534;2023-11-18T13:53:59;9.40;99.90
65046;DHT22;54657;52.022;5.534;2023-11-18T13:56:25;9.40;99.90
65046;DHT22;54657;52.022;5.534;2023-11-18T13:58:52;9.40;99.90
65046;DHT22;54657;52.022;5.534;2023-11-18T14:01:20;9.50;99.90
65046;DHT22;54657;52.022;5.534;2023-11-18T14:03:47;9.50;99.90
65046;DHT22;54657;52.022;5.534;2023-11-18T14:06:13;9.40;99.90
65046;DHT22;54657;52.022;5.534;2023-11-18T14:08:43;9.50;99.90
65046;DHT22;54657;52.022;5.534;2023-11-18T14:11:08;9.50;99.90
65046;DHT22;54657;52.022;5.534;2023-11-18T14:13:35;9.50;99.90
65046;DHT22;54657;52.022;5.534;2023-11-18T14:16:04;9.50;99.90
65046;DHT22;54657;52.022;5.534;2023-11-18T14:18:35;9.50;99.90
65046;DHT22;54657;52.022;5.534;2023-11-18T14:21:01;9.50;99.90
65046;DHT22;54657;52.022;5.534;2023-11-18T14:23:27;9.50;99.90
65046;DHT22;54657;52.022;5.534;2023-11-18T14:25:53;9.50;99.90
65046;DHT22;54657;52.022;5.534;2023-11-18T14:28:19;9.50;99.90
65046;DHT22;54657;52.022;5.534;2023-11-18T14:30:50;9.40;99.90
65046;DHT22;54657;52.022;5.534;2023-11-18T14:33:15;9.40;99.90
65046;DHT22;54657;52.022;5.534;2023-11-18T14:35:44;9.40;99.90
65046;DHT22;54657;52.022;5.534;2023-11-18T14:38:10;9.40;99.90
65046;DHT22;54657;52.022;5.534;2023-11-18T14:40:38;9.40;99.90
65046;DHT22;54657;52.022;5.534;2023-11-18T14:43:05;9.40;99.90
65046;DHT22;54657;52.022;5.534;2023-11-18T14:45:30;9.40;99.90
65046;DHT22;54657;52.022;5.534;2023-11-18T14:47:56;9.40;99.90
65046;DHT22;54657;52.022;5.534;2023-11-18T14:50:22;9.40;99.90
65046;DHT22;54657;52.022;5.534;2023-11-18T14:52:50;9.40;99.90
65046;DHT22;54657;52.022;5.534;2023-11-18T14:55:26;9.40;99.90
65046;DHT22;54657;52.022;5.534;2023-11-18T14:57:52;9.40;99.90
65046;DHT22;54657;52.022;5.534;2023-11-18T15:00:17;9.40;99.90
65046;DHT22;54657;52.022;5.534;2023-11-18T15:02:49;9.40;99.90
65046;DHT22;54657;52.022;5.534;2023-11-18T15:05:16;9.40;99.90
65046;DHT22;54657;52.022;5.534;2023-11-18T15:07:47;9.40;99.90
65046;DHT22;54657;52.022;5.534;2023-11-18T15:10:24;9.50;99.90
65046;DHT22;54657;52.022;5.534;2023-11-18T15:12:54;9.50;99.90
65046;DHT22;54657;52.022;5.534;2023-11-18T15:15:24;9.50;99.90
65046;DHT22;54657;52.022;5.534;2023-11-18T15:18:00;9.50;99.90
65046;DHT22;54657;52.022;5.534;2023-11-18T15:20:25;9.50;99.90
65046;DHT22;54657;52.022;5.534;2023-11-18T15:22:51;9.50;99.90
65046;DHT22;54657;52.022;5.534;2023-11-18T15:25:17;9.50;99.90
65046;DHT22;54657;52.022;5.534;2023-11-18T15:27:46;9.50;99.90
65046;DHT22;54657;52.022;5.534;2023-11-18T15:30:16;9.50;99.90
65046;DHT22;54657;52.022;5.534;2023-11-18T15:32:44;9.50;99.90
65046;DHT22;54657;52.022;5.534;2023-11-18T15:35:11;9.50;99.90
65046;DHT22;54657;52.022;5.534;2023-11-18T15:37:39;9.50;99.90
65046;DHT22;54657;52.022;5.534;2023-11-18T15:40:07;9.50;99.90
65046;DHT22;54657;52.022;5.534;2023-11-18T15:42:40;9.50;99.90
65046;DHT22;54657;52.022;5.534;2023-11-18T15:45:13;9.50;99.90
65046;DHT22;54657;52.022;5.534;2023-11-18T15:47:40;9.50;99.90
65046;DHT22;54657;52.022;5.534;2023-11-18T15:50:12;9.50;99.90
65046;DHT22;54657;52.022;5.534;2023-11-18T15:52:44;9.50;99.90
65046;DHT22;54657;52.022;5.534;2023-11-18T15:55:10;9.50;99.90
65046;DHT22;54657;52.022;5.534;2023-11-18T15:57:40;9.50;99.90
65046;DHT22;54657;52.022;5.534;2023-11-18T16:00:06;9.50;99.90
65046;DHT22;54657;52.022;5.534;2023-11-18T16:02:40;9.50;99.90
65046;DHT22;54657;52.022;5.534;2023-11-18T16:05:06;9.50;99.90
65046;DHT22;54657;52.022;5.534;2023-11-18T16:07:32;9.50;99.90
65046;DHT22;54657;52.022;5.534;2023-11-18T16:09:58;9.60;99.90
65046;DHT22;54657;52.022;5.534;2023-11-18T16:12:25;9.50;99.90
65046;DHT22;54657;52.022;5.534;2023-11-18T16:14:51;9.50;99.90